WXM80 ListenWXM80 Stop

You find our weather info also at:

UK Metoffice

WeatherCloud

Weather Underground

Northeastern Weather Network

AWEKAS

Citizen Weather Observer Program (CWOP)

HAMweather, WeatherForYou, PWS Weather


Nearby METAR Reports

   
KFRG - Farmingdale, New York, USA
Distance from station: SSW 14 mi
Updated: Nov 21 2017 7:53 am
Clear  
Clear  
   Wind: SW 11.5 mph
Wind: SW 11.5 mph
Temperature: 46.4°F
Wind Chill: 41°F
Dew Point: 33.8°F
Humidity: 62%
Barometer: 30.15 inHg
Clouds: Clear
Visibility: 10 mi
Cloud details: Clear
KFRG 211253Z 22010KT 10SM CLR 08/01 A3015 RMK AO2 SLP210 T00830011
KISP - Islip, New York, USA
Distance from station: SE 15 mi
Updated: Nov 21 2017 7:56 am
Partly Cloudy  
Partly Cloudy  
   Wind: WSW 8.1 mph
Wind: WSW 8.1 mph
Temperature: 48.2°F
Wind Chill: 44.6°F
Dew Point: 35.6°F
Humidity: 62%
Barometer: 30.15 inHg
Clouds: Partly Cloudy
Visibility: 10 mi
Cloud details: Partly Cloudy 7620 m
KISP 211256Z 24007KT 10SM SCT250 09/02 A3015 RMK AO2 SLP211 T00890022
KBDR - Bridgeport, Connecticut, USA
Distance from station: NNE 20 mi
Updated: Nov 21 2017 7:52 am
Clear  
Clear  
   Wind: SW 13.8 mph
Wind: SW 13.8 mph
Temperature: 46.4°F
Wind Chill: 39.2°F
Dew Point: 33.8°F
Humidity: 62%
Barometer: 30.14 inHg
Clouds: Clear
Visibility: 10 mi
Cloud details: Clear
KBDR 211252Z 23012KT 10SM CLR 08/01 A3014 RMK AO2 SLP207 T00830006
KHPN - White Plains, New York, USA
Distance from station: WNW 22 mi
Updated: Nov 21 2017 7:56 am
Clear  
Clear  
   Wind: Calm
Wind: Calm
Temperature: 41°F
Dew Point: 28.4°F
Humidity: 61%
Barometer: 30.12 inHg
Clouds: Clear
Visibility: 10 mi
Cloud details: Clear
KHPN 211256Z 00000KT 10SM CLR 05/M02 A3012 RMK AO2 SLP204 T00501017
KHWV - Shirley, New York, USA
Distance from station: ESE 25 mi
Updated: Nov 21 2017 7:56 am
Clear  
Clear  
   Wind: SW 6.9 mph
Wind: SW 6.9 mph
Temperature: 48.2°F
Wind Chill: 44.6°F
Dew Point: 37.4°F
Humidity: 66%
Barometer: 30.17 inHg
Clouds: Clear
Visibility: 10 mi
Cloud details: Clear
KHWV 211256Z AUTO 22006KT 10SM CLR 09/03 A3017 RMK AO2 SLP216 T00940028
KJFK - NYC/JFK Arpt, New York, USA
Distance from station: SW 30 mi
Updated: Nov 21 2017 7:51 am
Mostly Cloudy  
Mostly Cloudy  
   Wind: SW 16.1 mph
Wind: SW 16.1 mph
Temperature: 46.4°F
Wind Chill: 39.2°F
Dew Point: 35.6°F
Humidity: 66%
Barometer: 30.16 inHg
Clouds: Mostly Cloudy
Visibility: 10 mi
Cloud details: Mostly Cloudy 7620 m
KJFK 211251Z 23014KT 10SM BKN250 08/02 A3016 RMK AO2 SLP212 T00780022
KLGA - NYC/La Guardia, New York, USA
Distance from station: WSW 30 mi
Updated: Nov 21 2017 7:51 am
Partly Cloudy  
Partly Cloudy  
   Wind: SSW 11.5 mph
Wind: SSW 11.5 mph
Temperature: 46.4°F
Wind Chill: 41°F
Dew Point: 30.2°F
Humidity: 53%
Barometer: 30.14 inHg
Clouds: Partly Cloudy
Visibility: 10 mi
Cloud details: Few Clouds 4267 m,
Partly Cloudy 7620 m
KLGA 211251Z 21010KT 10SM FEW140 SCT250 08/M01 A3014 RMK AO2 SLP205 T00781006
KDXR - Danbury, Connecticut, USA
Distance from station: NNW 32 mi
Updated: Nov 21 2017 7:53 am
Clear  
Clear  
   Wind: SSW 12.7 mph
Wind: SSW 12.7 mph
Temperature: 42.8°F
Wind Chill: 35.6°F
Dew Point: 28.4°F
Humidity: 57%
Barometer: 30.12 inHg
Clouds: Clear
Visibility: 10 mi
Cloud details: Clear
KDXR 211253Z 21011KT 10SM CLR 06/M02 A3012 RMK AO2 SLP202 T00561022
KHVN - New Haven/Tweed, Connecticut, USA
Distance from station: NE 34 mi
Updated: Nov 21 2017 7:53 am
Few Clouds  
Few Clouds  
   Wind: varies 4.6 mph
Wind: varies 4.6 mph
Temperature: 44.6°F
Wind Chill: 42.8°F
Dew Point: 35.6°F
Humidity: 71%
Barometer: 30.15 inHg
Clouds: Few Clouds
Visibility: 10 mi
Cloud details: Few Clouds 7620 m
KHVN 211253Z VRB04KT 10SM FEW250 07/02 A3015 RMK AO2 SLP208 T00720017
KNYC - NYC/Central Park, New York, USA
Distance from station: WSW 35 mi
Updated: Nov 21 2017 7:51 am
Clear  
Clear  
   Wind: SW 8.1 mph<br />Gust to 8.1 mph
Wind: SW 8.1 mph
Gust to 8.1 mph
Temperature: 44.6°F
Wind Chill: 39.2°F
Dew Point: 30.2°F
Humidity: 57%
Barometer: 30.15 inHg
Clouds: Clear
Visibility: 10 mi
Cloud details: Clear
KNYC 211251Z AUTO 23007G16KT 130V260 10SM CLR 07/M01 A3015 RMK AO2 SLP202 T00671011 $
KFOK - Westhampton Beach, New York, USA
Distance from station: E 38 mi
Updated: Nov 21 2017 7:53 am
Clear  
Clear  
   Wind: SW 10.4 mph<br />Gust to 10.4 mph
Wind: SW 10.4 mph
Gust to 10.4 mph
Temperature: 50°F
Wind Chill: 46.4°F
Dew Point: 35.6°F
Humidity: 58%
Barometer: 30.18 inHg
Clouds: Clear
Visibility: 10 mi
Cloud details: Clear
KFOK 211253Z 23009G15KT 10SM CLR 10/02 A3018 RMK AO2 SLP219 T01000022
KTEB - Teterboro, New Jersey, USA
Distance from station: W 38 mi
Updated: Nov 21 2017 7:51 am
Clear  
Clear  
   Wind: South 3.5 mph
Wind: South 3.5 mph
Temperature: 37.4°F
Wind Chill: 35.6°F
Dew Point: 28.4°F
Humidity: 70%
Barometer: 30.13 inHg
Clouds: Clear
Visibility: 10 mi
Cloud details: Clear
KTEB 211251Z 19003KT 10SM CLR 03/M02 A3013 RMK AO2 SLP203 T00281017
KOXC - Oxford/Waterbury, Connecticut, USA
Distance from station: NNE 39 mi
Updated: Nov 21 2017 7:51 am
Clear  
Clear  
   Wind: varies 4.6 mph
Wind: varies 4.6 mph
Temperature: 37.4°F
Wind Chill: 33.8°F
Dew Point: 24.8°F
Humidity: 60%
Barometer: 30.12 inHg
Clouds: Clear
Visibility: 10 mi
Cloud details: Clear
KOXC 211251Z VRB04KT 10SM CLR 03/M04 A3012 RMK AO2 SLP217 T00281039
KEWR - Newark, New Jersey, USA
Distance from station: WSW 47 mi
Updated: Nov 21 2017 7:51 am
Partly Cloudy  
Partly Cloudy  
   Wind: Calm
Wind: Calm
Temperature: 39.2°F
Dew Point: 30.2°F
Humidity: 70%
Barometer: 30.14 inHg
Clouds: Partly Cloudy
Visibility: 10 mi
Cloud details: Partly Cloudy 7620 m
KEWR 211251Z 00000KT 10SM SCT250 04/M01 A3014 RMK AO2 SLP205 T00441011 $
KMMK - Meriden, Connecticut, USA
Distance from station: NNE 48 mi
Updated: Nov 21 2017 7:53 am
Clear  
Clear  
   Wind: SSE 6.9 mph
Wind: SSE 6.9 mph
Temperature: 35.6°F
Wind Chill: 30.2°F
Dew Point: 26.6°F
Humidity: 70%
Barometer: 30.13 inHg
Clouds: Clear
Visibility: 10 mi
Cloud details: Clear
KMMK 211253Z AUTO 15006KT 10SM CLR 02/M03 A3013 RMK AO2 SLP205 T00221028

Script developed by  Saratoga-weather.org Adapted for the template by  Weerstation Leuven

Lightning: The average number of deaths from lightning is more than 100 a year with several more deaths from lightning related fires. Lightning injuries account for 3-5 times than those of lightning deaths.